sensor_id;sensor_type;location;lat;lon;timestamp;pressure;altitude;pressure_sealevel;temperature;humidity
6423;BME280;3244;42.708;23.288;2023-02-02T00:01:17;95110.69;;;6.03;54.30
6423;BME280;3244;42.708;23.288;2023-02-02T00:03:46;95100.56;;;6.06;54.55
6423;BME280;3244;42.708;23.288;2023-02-02T00:06:15;95135.59;;;6.23;54.54
6423;BME280;3244;42.708;23.288;2023-02-02T00:08:42;95121.56;;;6.07;54.22
6423;BME280;3244;42.708;23.288;2023-02-02T00:11:08;95124.16;;;6.02;54.03
6423;BME280;3244;42.708;23.288;2023-02-02T00:13:35;95110.91;;;5.88;54.83
6423;BME280;3244;42.708;23.288;2023-02-02T00:19:05;95122.38;;;6.09;53.96
6423;BME280;3244;42.708;23.288;2023-02-02T00:21:32;95127.31;;;6.17;53.92
6423;BME280;3244;42.708;23.288;2023-02-02T00:23:59;95135.63;;;6.22;53.55
6423;BME280;3244;42.708;23.288;2023-02-02T00:26:26;95130.66;;;6.19;53.54
6423;BME280;3244;42.708;23.288;2023-02-02T00:28:53;95133.97;;;6.21;54.21
6423;BME280;3244;42.708;23.288;2023-02-02T00:31:20;95132.28;;;6.20;53.82
6423;BME280;3244;42.708;23.288;2023-02-02T00:33:47;95137.34;;;6.20;54.76
6423;BME280;3244;42.708;23.288;2023-02-02T00:36:16;95134.91;;;6.15;54.29
6423;BME280;3244;42.708;23.288;2023-02-02T00:38:43;95142.34;;;6.23;53.96
6423;BME280;3244;42.708;23.288;2023-02-02T00:41:09;95139.09;;;6.18;54.41
6423;BME280;3244;42.708;23.288;2023-02-02T00:43:36;95138.28;;;6.16;54.76
6423;BME280;3244;42.708;23.288;2023-02-02T00:46:03;95133.34;;;6.08;54.68
6423;BME280;3244;42.708;23.288;2023-02-02T00:48:30;95137.53;;;6.07;54.02
6423;BME280;3244;42.708;23.288;2023-02-02T00:50:56;95143.44;;;6.06;55.13
6423;BME280;3244;42.708;23.288;2023-02-02T00:53:25;95146.78;;;6.08;54.47
6423;BME280;3244;42.708;23.288;2023-02-02T00:55:51;95144.44;;;5.95;55.25
6423;BME280;3244;42.708;23.288;2023-02-02T00:58:18;95126.91;;;5.89;55.62
6423;BME280;3244;42.708;23.288;2023-02-02T01:00:45;95126.03;;;5.91;56.58
6423;BME280;3244;42.708;23.288;2023-02-02T01:03:11;95115.16;;;5.83;56.58
6423;BME280;3244;42.708;23.288;2023-02-02T01:05:38;95120.22;;;5.81;56.62
6423;BME280;3244;42.708;23.288;2023-02-02T01:08:05;95125.34;;;5.75;58.02
6423;BME280;3244;42.708;23.288;2023-02-02T01:10:34;95116.03;;;5.82;57.76
6423;BME280;3244;42.708;23.288;2023-02-02T01:13:01;95114.44;;;5.75;58.04
6423;BME280;3244;42.708;23.288;2023-02-02T01:15:29;95108.63;;;5.70;58.57
6423;BME280;3244;42.708;23.288;2023-02-02T01:17:56;95106.97;;;5.69;58.23
6423;BME280;3244;42.708;23.288;2023-02-02T01:20:23;95112.91;;;5.65;58.91
6423;BME280;3244;42.708;23.288;2023-02-02T01:22:50;95111.31;;;5.58;58.88
6423;BME280;3244;42.708;23.288;2023-02-02T01:25:17;95085.53;;;5.40;59.04
6423;BME280;3244;42.708;23.288;2023-02-02T01:27:45;95112.38;;;5.43;59.54
6423;BME280;3244;42.708;23.288;2023-02-02T01:30:12;95099.03;;;5.35;59.00
6423;BME280;3244;42.708;23.288;2023-02-02T01:32:39;95103.28;;;5.31;59.96
6423;BME280;3244;42.708;23.288;2023-02-02T01:35:06;95081.69;;;5.12;59.19
6423;BME280;3244;42.708;23.288;2023-02-02T01:37:34;95108.16;;;5.43;59.15
6423;BME280;3244;42.708;23.288;2023-02-02T01:40:01;95105.66;;;5.43;59.64
6423;BME280;3244;42.708;23.288;2023-02-02T01:42:27;95105.56;;;5.46;58.63
6423;BME280;3244;42.708;23.288;2023-02-02T01:45:14;95096.34;;;5.47;59.52
6423;BME280;3244;42.708;23.288;2023-02-02T01:47:43;95104.00;;;5.39;59.74
6423;BME280;3244;42.708;23.288;2023-02-02T01:50:13;95099.25;;;5.18;60.41
6423;BME280;3244;42.708;23.288;2023-02-02T01:52:42;95090.16;;;5.05;61.54
6423;BME280;3244;42.708;23.288;2023-02-02T01:55:11;95085.28;;;4.91;61.73
6423;BME280;3244;42.708;23.288;2023-02-02T01:57:41;95068.78;;;4.66;63.01
6423;BME280;3244;42.708;23.288;2023-02-02T02:00:13;95049.75;;;4.43;63.30
6423;BME280;3244;42.708;23.288;2023-02-02T02:02:41;95081.53;;;4.51;64.61
6423;BME280;3244;42.708;23.288;2023-02-02T02:05:10;95075.75;;;4.42;64.97
6423;BME280;3244;42.708;23.288;2023-02-02T02:07:41;95079.28;;;4.22;65.97
6423;BME280;3244;42.708;23.288;2023-02-02T02:10:09;95081.00;;;4.20;66.20
6423;BME280;3244;42.708;23.288;2023-02-02T02:12:36;95088.59;;;4.14;66.26
6423;BME280;3244;42.708;23.288;2023-02-02T02:15:03;95089.47;;;4.06;66.89
6423;BME280;3244;42.708;23.288;2023-02-02T02:17:58;95086.16;;;4.01;67.17
6423;BME280;3244;42.708;23.288;2023-02-02T02:20:55;95084.44;;;4.05;67.08
6423;BME280;3244;42.708;23.288;2023-02-02T02:24:14;95087.84;;;3.99;67.39
6423;BME280;3244;42.708;23.288;2023-02-02T02:27:37;95095.31;;;4.12;66.71
6423;BME280;3244;42.708;23.288;2023-02-02T02:30:39;95092.81;;;4.08;66.83
6423;BME280;3244;42.708;23.288;2023-02-02T02:33:13;95090.28;;;4.08;67.57
6423;BME280;3244;42.708;23.288;2023-02-02T02:35:49;95092.03;;;4.00;67.90
6423;BME280;3244;42.708;23.288;2023-02-02T02:38:27;95092.03;;;4.00;68.13
6423;BME280;3244;42.708;23.288;2023-02-02T02:41:01;95085.34;;;3.96;67.58
6423;BME280;3244;42.708;23.288;2023-02-02T02:43:32;95094.63;;;3.94;67.92
6423;BME280;3244;42.708;23.288;2023-02-02T02:46:00;95096.31;;;3.92;67.54
6423;BME280;3244;42.708;23.288;2023-02-02T02:48:29;95085.41;;;3.90;67.58
6423;BME280;3244;42.708;23.288;2023-02-02T02:51:04;95089.75;;;3.70;68.67
6423;BME280;3244;42.708;23.288;2023-02-02T02:53:32;95087.19;;;3.74;68.10
6423;BME280;3244;42.708;23.288;2023-02-02T02:56:04;95096.47;;;3.71;68.47
6423;BME280;3244;42.708;23.288;2023-02-02T02:58:39;95095.59;;;3.72;68.34
6423;BME280;3244;42.708;23.288;2023-02-02T03:01:13;95090.66;;;3.61;68.83
6423;BME280;3244;42.708;23.288;2023-02-02T03:03:55;95088.97;;;3.63;68.60
6423;BME280;3244;42.708;23.288;2023-02-02T03:06:28;95082.16;;;3.74;68.19
6423;BME280;3244;42.708;23.288;2023-02-02T03:09:01;95083.91;;;3.68;68.51
6423;BME280;3244;42.708;23.288;2023-02-02T03:11:28;95087.31;;;3.59;69.11
6423;BME280;3244;42.708;23.288;2023-02-02T03:13:56;95072.25;;;3.55;68.98
6423;BME280;3244;42.708;23.288;2023-02-02T03:16:22;95080.47;;;3.75;68.52
6423;BME280;3244;42.708;23.288;2023-02-02T03:18:50;95081.28;;;3.80;68.51
6423;BME280;3244;42.708;23.288;2023-02-02T03:21:17;95080.47;;;3.78;68.18
6423;BME280;3244;42.708;23.288;2023-02-02T03:23:44;95081.25;;;3.88;67.89
6423;BME280;3244;42.708;23.288;2023-02-02T03:26:11;95079.56;;;3.88;68.07
6423;BME280;3244;42.708;23.288;2023-02-02T03:28:38;95081.28;;;3.83;68.37
6423;BME280;3244;42.708;23.288;2023-02-02T03:31:05;95076.28;;;3.77;68.28
6423;BME280;3244;42.708;23.288;2023-02-02T03:33:34;95082.22;;;3.70;68.40
6423;BME280;3244;42.708;23.288;2023-02-02T03:36:04;95079.72;;;3.67;68.57
6423;BME280;3244;42.708;23.288;2023-02-02T03:38:30;95068.94;;;3.48;69.05
6423;BME280;3244;42.708;23.288;2023-02-02T03:40:57;95086.47;;;3.59;69.52
6423;BME280;3244;42.708;23.288;2023-02-02T03:43:24;95081.50;;;3.47;69.80
6423;BME280;3244;42.708;23.288;2023-02-02T03:45:55;95084.91;;;3.46;69.96
6423;BME280;3244;42.708;23.288;2023-02-02T03:48:22;95083.25;;;3.38;70.41
6423;BME280;3244;42.708;23.288;2023-02-02T03:50:48;95085.81;;;3.23;70.33
6423;BME280;3244;42.708;23.288;2023-02-02T03:53:17;95082.47;;;3.23;71.15
6423;BME280;3244;42.708;23.288;2023-02-02T03:55:43;95095.09;;;3.18;70.96
6423;BME280;3244;42.708;23.288;2023-02-02T03:58:10;95095.13;;;3.09;71.11
6423;BME280;3244;42.708;23.288;2023-02-02T04:00:37;95095.94;;;3.08;70.90
6423;BME280;3244;42.708;23.288;2023-02-02T04:03:04;95092.66;;;2.97;71.49
6423;BME280;3244;42.708;23.288;2023-02-02T04:05:30;95098.53;;;2.90;71.27
6423;BME280;3244;42.708;23.288;2023-02-02T04:07:57;95103.59;;;2.74;71.27
6423;BME280;3244;42.708;23.288;2023-02-02T04:10:25;95101.91;;;2.73;71.31
6423;BME280;3244;42.708;23.288;2023-02-02T04:12:52;95102.81;;;2.62;72.92
6423;BME280;3244;42.708;23.288;2023-02-02T04:15:19;95105.31;;;2.69;72.41
6423;BME280;3244;42.708;23.288;2023-02-02T04:17:45;95107.78;;;2.72;71.90
6423;BME280;3244;42.708;23.288;2023-02-02T04:20:12;95114.50;;;2.63;72.27
6423;BME280;3244;42.708;23.288;2023-02-02T04:22:39;95113.66;;;2.68;72.39
6423;BME280;3244;42.708;23.288;2023-02-02T04:25:06;95114.50;;;2.61;72.97
6423;BME280;3244;42.708;23.288;2023-02-02T04:27:34;95111.19;;;2.53;72.56
6423;BME280;3244;42.708;23.288;2023-02-02T04:30:01;95108.66;;;2.56;73.27
6423;BME280;3244;42.708;23.288;2023-02-02T04:32:28;95103.66;;;2.53;73.49
6423;BME280;3244;42.708;23.288;2023-02-02T04:34:54;95095.28;;;2.48;73.83
6423;BME280;3244;42.708;23.288;2023-02-02T04:37:21;95092.81;;;2.45;73.70
6423;BME280;3244;42.708;23.288;2023-02-02T04:39:48;95098.69;;;2.35;73.48
6423;BME280;3244;42.708;23.288;2023-02-02T04:42:15;95105.38;;;2.36;74.17
6423;BME280;3244;42.708;23.288;2023-02-02T04:44:43;95107.03;;;2.40;73.27
6423;BME280;3244;42.708;23.288;2023-02-02T04:47:10;95092.00;;;2.23;73.92
6423;BME280;3244;42.708;23.288;2023-02-02T04:49:37;95113.72;;;2.41;74.13
6423;BME280;3244;42.708;23.288;2023-02-02T04:52:04;95110.38;;;2.36;73.78
6423;BME280;3244;42.708;23.288;2023-02-02T04:54:31;95112.06;;;2.31;74.57
6423;BME280;3244;42.708;23.288;2023-02-02T04:56:58;95112.88;;;2.27;74.17
6423;BME280;3244;42.708;23.288;2023-02-02T04:59:27;95116.25;;;2.18;74.18
6423;BME280;3244;42.708;23.288;2023-02-02T05:01:58;95119.59;;;2.08;75.56
6423;BME280;3244;42.708;23.288;2023-02-02T05:04:25;95119.56;;;2.26;74.21
6423;BME280;3244;42.708;23.288;2023-02-02T05:06:51;95120.41;;;2.25;74.54
6423;BME280;3244;42.708;23.288;2023-02-02T05:09:18;95120.41;;;2.36;73.69
6423;BME280;3244;42.708;23.288;2023-02-02T05:11:45;95124.59;;;2.40;73.60
6423;BME280;3244;42.708;23.288;2023-02-02T05:14:12;95119.56;;;2.25;74.12
6423;BME280;3244;42.708;23.288;2023-02-02T05:16:41;95125.41;;;2.24;74.35
6423;BME280;3244;42.708;23.288;2023-02-02T05:19:10;95114.59;;;2.17;73.43
6423;BME280;3244;42.708;23.288;2023-02-02T05:21:37;95102.03;;;2.11;73.55
6423;BME280;3244;42.708;23.288;2023-02-02T05:24:04;95107.91;;;2.09;74.68
6423;BME280;3244;42.708;23.288;2023-02-02T05:26:31;95081.19;;;1.95;74.44
6423;BME280;3244;42.708;23.288;2023-02-02T05:28:57;95103.72;;;2.12;73.76
6423;BME280;3244;42.708;23.288;2023-02-02T05:31:24;95108.72;;;2.15;72.97
6423;BME280;3244;42.708;23.288;2023-02-02T05:33:51;95100.38;;;2.05;73.32
6423;BME280;3244;42.708;23.288;2023-02-02T05:36:19;95116.25;;;2.04;73.96
6423;BME280;3244;42.708;23.288;2023-02-02T05:38:45;95122.91;;;2.01;73.69
6423;BME280;3244;42.708;23.288;2023-02-02T05:41:12;95125.44;;;2.07;73.52
6423;BME280;3244;42.708;23.288;2023-02-02T05:43:39;95103.72;;;2.08;73.65
6423;BME280;3244;42.708;23.288;2023-02-02T05:46:06;95127.94;;;2.09;73.74
6423;BME280;3244;42.708;23.288;2023-02-02T05:48:32;95120.44;;;2.12;72.58
6423;BME280;3244;42.708;23.288;2023-02-02T05:51:02;95112.91;;;2.10;73.90
6423;BME280;3244;42.708;23.288;2023-02-02T05:53:32;95123.78;;;2.14;73.27
6423;BME280;3244;42.708;23.288;2023-02-02T05:55:59;95126.25;;;2.26;72.71
6423;BME280;3244;42.708;23.288;2023-02-02T05:58:25;95124.59;;;2.32;72.44
6423;BME280;3244;42.708;23.288;2023-02-02T06:00:54;95132.94;;;2.36;71.92
6423;BME280;3244;42.708;23.288;2023-02-02T06:03:21;95133.78;;;2.47;71.98
6423;BME280;3244;42.708;23.288;2023-02-02T06:05:48;95132.06;;;2.58;71.42
6423;BME280;3244;42.708;23.288;2023-02-02T06:08:15;95139.59;;;2.57;70.85
6423;BME280;3244;42.708;23.288;2023-02-02T06:10:43;95138.75;;;2.62;71.01
6423;BME280;3244;42.708;23.288;2023-02-02T06:13:10;95138.75;;;2.62;70.93
6423;BME280;3244;42.708;23.288;2023-02-02T06:15:37;95136.25;;;2.70;71.33
6423;BME280;3244;42.708;23.288;2023-02-02T06:18:03;95129.50;;;2.84;70.53
6423;BME280;3244;42.708;23.288;2023-02-02T06:20:32;95139.31;;;3.45;68.64
6423;BME280;3244;42.708;23.288;2023-02-02T06:22:59;95144.09;;;3.91;67.49
6423;BME280;3244;42.708;23.288;2023-02-02T06:25:27;95121.25;;;4.17;66.06
6423;BME280;3244;42.708;23.288;2023-02-02T06:27:56;95152.78;;;4.54;64.42
6423;BME280;3244;42.708;23.288;2023-02-02T06:30:22;95149.63;;;4.34;64.65
6423;BME280;3244;42.708;23.288;2023-02-02T06:32:49;95155.66;;;4.12;65.48
6423;BME280;3244;42.708;23.288;2023-02-02T06:35:16;95140.63;;;4.01;66.06
6423;BME280;3244;42.708;23.288;2023-02-02T06:37:43;95158.25;;;3.96;65.88
6423;BME280;3244;42.708;23.288;2023-02-02T06:40:11;95174.97;;;4.09;65.28
6423;BME280;3244;42.708;23.288;2023-02-02T06:42:38;95153.22;;;3.99;65.65
6423;BME280;3244;42.708;23.288;2023-02-02T06:45:08;95159.91;;;4.03;66.14
6423;BME280;3244;42.708;23.288;2023-02-02T06:47:35;95158.22;;;4.05;64.98
6423;BME280;3244;42.708;23.288;2023-02-02T06:50:02;95155.69;;;4.05;65.03
6423;BME280;3244;42.708;23.288;2023-02-02T06:52:29;95161.53;;;4.10;64.96
6423;BME280;3244;42.708;23.288;2023-02-02T06:54:57;95156.47;;;4.17;65.19
6423;BME280;3244;42.708;23.288;2023-02-02T06:57:23;95168.13;;;4.24;64.59
6423;BME280;3244;42.708;23.288;2023-02-02T06:59:50;95161.38;;;4.29;63.99
6423;BME280;3244;42.708;23.288;2023-02-02T07:02:18;95175.53;;;4.43;63.80
6423;BME280;3244;42.708;23.288;2023-02-02T07:04:47;95167.84;;;4.59;63.42
6423;BME280;3244;42.708;23.288;2023-02-02T07:07:14;95170.44;;;4.51;63.39
6423;BME280;3244;42.708;23.288;2023-02-02T07:09:41;95165.28;;;4.65;63.13
6423;BME280;3244;42.708;23.288;2023-02-02T07:12:08;95159.28;;;4.76;63.95
6423;BME280;3244;42.708;23.288;2023-02-02T07:14:34;95161.59;;;4.98;62.41
6423;BME280;3244;42.708;23.288;2023-02-02T07:17:02;95152.03;;;5.27;61.30
6423;BME280;3244;42.708;23.288;2023-02-02T07:19:30;95154.28;;;5.48;60.04
6423;BME280;3244;42.708;23.288;2023-02-02T07:21:57;95159.88;;;5.70;59.86
6423;BME280;3244;42.708;23.288;2023-02-02T07:24:24;95144.81;;;5.69;58.82
6423;BME280;3244;42.708;23.288;2023-02-02T07:26:52;95167.25;;;5.86;57.94
6423;BME280;3244;42.708;23.288;2023-02-02T07:29:18;95167.97;;;5.95;57.40
6423;BME280;3244;42.708;23.288;2023-02-02T07:31:45;95166.28;;;5.97;58.11
6423;BME280;3244;42.708;23.288;2023-02-02T07:34:12;95155.34;;;5.97;57.35
6423;BME280;3244;42.708;23.288;2023-02-02T07:36:40;95157.41;;;6.29;56.75
6423;BME280;3244;42.708;23.288;2023-02-02T07:39:07;95171.75;;;6.77;55.29
6423;BME280;3244;42.708;23.288;2023-02-02T07:41:35;95172.00;;;7.10;56.22
6423;BME280;3244;42.708;23.288;2023-02-02T07:44:02;95166.09;;;7.11;56.39
6423;BME280;3244;42.708;23.288;2023-02-02T07:46:29;95164.25;;;7.19;55.91
6423;BME280;3244;42.708;23.288;2023-02-02T07:48:56;95153.97;;;7.28;56.08
6423;BME280;3244;42.708;23.288;2023-02-02T07:51:24;95152.00;;;7.42;55.39
6423;BME280;3244;42.708;23.288;2023-02-02T07:53:53;95145.22;;;7.44;55.12
6423;BME280;3244;42.708;23.288;2023-02-02T07:56:24;95147.09;;;7.36;55.43
6423;BME280;3244;42.708;23.288;2023-02-02T07:58:52;95147.84;;;7.80;55.40
6423;BME280;3244;42.708;23.288;2023-02-02T08:01:19;95131.97;;;9.43;51.80
6423;BME280;3244;42.708;23.288;2023-02-02T08:03:47;95118.81;;;10.44;48.08
6423;BME280;3244;42.708;23.288;2023-02-02T08:06:16;95133.97;;;10.47;47.93
6423;BME280;3244;42.708;23.288;2023-02-02T08:08:43;95124.31;;;11.33;46.24
6423;BME280;3244;42.708;23.288;2023-02-02T08:11:12;95129.31;;;12.26;44.75
6423;BME280;3244;42.708;23.288;2023-02-02T08:13:40;95117.09;;;13.17;41.78
6423;BME280;3244;42.708;23.288;2023-02-02T08:16:07;95118.28;;;13.49;40.19
6423;BME280;3244;42.708;23.288;2023-02-02T08:18:35;95102.56;;;13.77;39.85
6423;BME280;3244;42.708;23.288;2023-02-02T08:21:04;95101.59;;;13.60;40.05
6423;BME280;3244;42.708;23.288;2023-02-02T08:23:32;95109.72;;;13.69;39.24
6423;BME280;3244;42.708;23.288;2023-02-02T08:26:05;95110.75;;;14.02;38.43
6423;BME280;3244;42.708;23.288;2023-02-02T08:28:34;95107.06;;;14.26;38.70
6423;BME280;3244;42.708;23.288;2023-02-02T08:31:06;95118.41;;;15.09;36.64
6423;BME280;3244;42.708;23.288;2023-02-02T08:33:33;95100.28;;;16.41;35.08
6423;BME280;3244;42.708;23.288;2023-02-02T08:36:00;95098.91;;;17.67;33.16
6423;BME280;3244;42.708;23.288;2023-02-02T08:38:27;95104.00;;;18.37;31.76
6423;BME280;3244;42.708;23.288;2023-02-02T08:40:54;95091.41;;;18.86;30.74
6423;BME280;3244;42.708;23.288;2023-02-02T08:43:21;95083.84;;;19.23;29.73
6423;BME280;3244;42.708;23.288;2023-02-02T08:45:50;95080.03;;;20.03;28.28
6423;BME280;3244;42.708;23.288;2023-02-02T08:48:17;95071.50;;;19.90;27.22
6423;BME280;3244;42.708;23.288;2023-02-02T08:50:51;95065.88;;;18.96;28.54
6423;BME280;3244;42.708;23.288;2023-02-02T08:53:18;95067.34;;;18.33;28.92
6423;BME280;3244;42.708;23.288;2023-02-02T08:55:45;95062.72;;;17.85;29.54
6423;BME280;3244;42.708;23.288;2023-02-02T08:58:12;95052.91;;;17.63;29.65
6423;BME280;3244;42.708;23.288;2023-02-02T09:00:39;95061.09;;;16.98;31.08
6423;BME280;3244;42.708;23.288;2023-02-02T09:03:07;95061.97;;;15.76;32.11
6423;BME280;3244;42.708;23.288;2023-02-02T09:05:34;95063.22;;;15.69;33.28
6423;BME280;3244;42.708;23.288;2023-02-02T09:08:03;95069.00;;;15.73;32.85
6423;BME280;3244;42.708;23.288;2023-02-02T09:10:30;95066.28;;;15.27;33.84
6423;BME280;3244;42.708;23.288;2023-02-02T09:12:57;95064.31;;;15.32;34.22
6423;BME280;3244;42.708;23.288;2023-02-02T09:15:23;95054.03;;;15.65;34.03
6423;BME280;3244;42.708;23.288;2023-02-02T09:17:51;95050.16;;;16.05;33.22
6423;BME280;3244;42.708;23.288;2023-02-02T09:20:19;95044.16;;;16.20;33.35
6423;BME280;3244;42.708;23.288;2023-02-02T09:22:46;95053.22;;;16.42;32.70
6423;BME280;3244;42.708;23.288;2023-02-02T09:25:13;95047.47;;;16.22;32.55
6423;BME280;3244;42.708;23.288;2023-02-02T09:27:40;95054.38;;;15.75;33.75
6423;BME280;3244;42.708;23.288;2023-02-02T09:30:08;95051.59;;;15.46;34.40
6423;BME280;3244;42.708;23.288;2023-02-02T09:32:35;95041.25;;;15.32;34.56
6423;BME280;3244;42.708;23.288;2023-02-02T09:35:02;95042.69;;;15.05;34.78
6423;BME280;3244;42.708;23.288;2023-02-02T09:37:32;95041.03;;;14.86;35.42
6423;BME280;3244;42.708;23.288;2023-02-02T09:40:00;95037.75;;;14.84;35.40
6423;BME280;3244;42.708;23.288;2023-02-02T09:42:39;95021.50;;;14.68;35.40
6423;BME280;3244;42.708;23.288;2023-02-02T09:45:17;95026.09;;;14.61;36.03
6423;BME280;3244;42.708;23.288;2023-02-02T09:47:52;95038.88;;;14.61;35.86
6423;BME280;3244;42.708;23.288;2023-02-02T09:50:27;95032.66;;;14.67;36.18
6423;BME280;3244;42.708;23.288;2023-02-02T09:53:00;95033.81;;;14.94;35.73
6423;BME280;3244;42.708;23.288;2023-02-02T09:55:34;95027.06;;;14.76;36.17
6423;BME280;3244;42.708;23.288;2023-02-02T09:58:07;95028.22;;;14.71;35.62
6423;BME280;3244;42.708;23.288;2023-02-02T10:00:41;95028.44;;;14.66;36.90
6423;BME280;3244;42.708;23.288;2023-02-02T10:03:14;95018.50;;;14.77;35.75
6423;BME280;3244;42.708;23.288;2023-02-02T10:05:47;95020.16;;;14.61;35.70
6423;BME280;3244;42.708;23.288;2023-02-02T10:08:25;95016.97;;;14.39;36.56
6423;BME280;3244;42.708;23.288;2023-02-02T10:10:54;95011.72;;;14.07;36.58
6423;BME280;3244;42.708;23.288;2023-02-02T10:13:24;95007.44;;;13.72;37.01
6423;BME280;3244;42.708;23.288;2023-02-02T10:16:01;95003.88;;;13.38;38.17
6423;BME280;3244;42.708;23.288;2023-02-02T10:18:38;95007.31;;;13.37;38.37
6423;BME280;3244;42.708;23.288;2023-02-02T10:21:10;94999.59;;;13.57;37.43
6423;BME280;3244;42.708;23.288;2023-02-02T10:23:41;94994.13;;;13.65;37.87
6423;BME280;3244;42.708;23.288;2023-02-02T10:26:15;94990.19;;;13.77;37.81
6423;BME280;3244;42.708;23.288;2023-02-02T10:29:07;94965.84;;;13.87;37.57
6423;BME280;3244;42.708;23.288;2023-02-02T10:31:42;94995.03;;;14.17;37.01
6423;BME280;3244;42.708;23.288;2023-02-02T10:34:14;94987.69;;;14.28;36.71
6423;BME280;3244;42.708;23.288;2023-02-02T10:36:49;94966.97;;;14.68;35.90
6423;BME280;3244;42.708;23.288;2023-02-02T10:39:30;94962.75;;;14.84;35.39
6423;BME280;3244;42.708;23.288;2023-02-02T10:42:14;94963.88;;;14.78;35.23
6423;BME280;3244;42.708;23.288;2023-02-02T10:44:48;94949.19;;;14.49;35.62
6423;BME280;3244;42.708;23.288;2023-02-02T10:47:22;94943.00;;;14.36;35.95
6423;BME280;3244;42.708;23.288;2023-02-02T10:49:57;94941.66;;;14.28;35.79
6423;BME280;3244;42.708;23.288;2023-02-02T10:52:31;94921.66;;;14.19;36.39
6423;BME280;3244;42.708;23.288;2023-02-02T10:55:02;94934.25;;;14.40;36.63
6423;BME280;3244;42.708;23.288;2023-02-02T10:57:51;94926.72;;;14.71;35.92
6423;BME280;3244;42.708;23.288;2023-02-02T11:00:22;94923.53;;;14.83;35.20
6423;BME280;3244;42.708;23.288;2023-02-02T11:02:51;94920.47;;;14.92;35.03
6423;BME280;3244;42.708;23.288;2023-02-02T11:05:21;94932.34;;;14.78;35.00
6423;BME280;3244;42.708;23.288;2023-02-02T11:08:16;94924.16;;;14.71;35.24
6423;BME280;3244;42.708;23.288;2023-02-02T11:10:46;94921.22;;;14.79;35.35
6423;BME280;3244;42.708;23.288;2023-02-02T11:13:18;94917.25;;;14.73;34.92
6423;BME280;3244;42.708;23.288;2023-02-02T11:15:47;94909.94;;;14.66;35.45
6423;BME280;3244;42.708;23.288;2023-02-02T11:18:26;94902.84;;;14.55;36.19
6423;BME280;3244;42.708;23.288;2023-02-02T11:20:53;94903.00;;;14.52;35.60
6423;BME280;3244;42.708;23.288;2023-02-02T11:23:20;94888.72;;;14.30;35.63
6423;BME280;3244;42.708;23.288;2023-02-02T11:25:58;94899.41;;;14.21;36.32
6423;BME280;3244;42.708;23.288;2023-02-02T11:28:26;94896.09;;;14.19;36.31
6423;BME280;3244;42.708;23.288;2023-02-02T11:30:56;94882.56;;;14.17;35.81
6423;BME280;3244;42.708;23.288;2023-02-02T11:33:29;94879.72;;;13.89;36.31
6423;BME280;3244;42.708;23.288;2023-02-02T11:35:59;94876.53;;;13.85;37.02
6423;BME280;3244;42.708;23.288;2023-02-02T11:38:26;94883.94;;;13.90;37.05
6423;BME280;3244;42.708;23.288;2023-02-02T11:40:57;94863.06;;;13.99;36.81
6423;BME280;3244;42.708;23.288;2023-02-02T11:43:28;94871.91;;;14.26;36.39
6423;BME280;3244;42.708;23.288;2023-02-02T11:45:58;94865.38;;;14.37;36.19
6423;BME280;3244;42.708;23.288;2023-02-02T11:48:30;94861.81;;;14.23;36.03
6423;BME280;3244;42.708;23.288;2023-02-02T11:50:59;94861.66;;;14.26;36.56
6423;BME280;3244;42.708;23.288;2023-02-02T11:53:29;94869.59;;;14.38;36.11
6423;BME280;3244;42.708;23.288;2023-02-02T11:55:59;94859.13;;;14.26;36.71
6423;BME280;3244;42.708;23.288;2023-02-02T11:58:29;94866.28;;;14.36;36.09
6423;BME280;3244;42.708;23.288;2023-02-02T12:00:59;94851.78;;;14.36;36.78
6423;BME280;3244;42.708;23.288;2023-02-02T12:03:32;94857.91;;;14.34;36.56
6423;BME280;3244;42.708;23.288;2023-02-02T12:05:59;94849.72;;;14.60;36.35
6423;BME280;3244;42.708;23.288;2023-02-02T12:08:28;94847.34;;;14.88;35.20
6423;BME280;3244;42.708;23.288;2023-02-02T12:10:59;94839.66;;;14.88;34.26
6423;BME280;3244;42.708;23.288;2023-02-02T12:13:47;94849.16;;;14.38;34.43
6423;BME280;3244;42.708;23.288;2023-02-02T12:16:27;94835.00;;;13.82;33.68
6423;BME280;3244;42.708;23.288;2023-02-02T12:19:09;94834.69;;;13.36;34.90
6423;BME280;3244;42.708;23.288;2023-02-02T12:21:48;94848.91;;;13.04;35.81
6423;BME280;3244;42.708;23.288;2023-02-02T12:24:28;94853.16;;;12.86;36.02
6423;BME280;3244;42.708;23.288;2023-02-02T12:27:04;94850.38;;;12.72;36.53
6423;BME280;3244;42.708;23.288;2023-02-02T12:32:46;94848.03;;;12.30;36.67
6423;BME280;3244;42.708;23.288;2023-02-02T12:35:35;94859.69;;;12.15;37.82
6423;BME280;3244;42.708;23.288;2023-02-02T12:38:13;94840.16;;;11.96;37.60
6423;BME280;3244;42.708;23.288;2023-02-02T12:40:57;94837.94;;;12.08;37.86
6423;BME280;3244;42.708;23.288;2023-02-02T12:43:37;94858.44;;;12.05;37.19
6423;BME280;3244;42.708;23.288;2023-02-02T12:46:15;94852.19;;;11.92;37.99
6423;BME280;3244;42.708;23.288;2023-02-02T12:48:58;94852.84;;;11.77;38.81
6423;BME280;3244;42.708;23.288;2023-02-02T12:51:46;94850.75;;;11.44;38.42
6423;BME280;3244;42.708;23.288;2023-02-02T12:57:14;94840.56;;;11.44;38.21
6423;BME280;3244;42.708;23.288;2023-02-02T13:00:02;94845.66;;;11.44;38.52
6423;BME280;3244;42.708;23.288;2023-02-02T13:02:35;94848.78;;;11.31;38.66
6423;BME280;3244;42.708;23.288;2023-02-02T13:05:25;94817.84;;;10.98;38.54
6423;BME280;3244;42.708;23.288;2023-02-02T13:07:57;94836.53;;;10.97;38.68
6423;BME280;3244;42.708;23.288;2023-02-02T13:10:31;94845.94;;;10.95;38.61
6423;BME280;3244;42.708;23.288;2023-02-02T13:13:02;94859.91;;;10.84;39.37
6423;BME280;3244;42.708;23.288;2023-02-02T13:15:33;94853.50;;;10.96;39.73
6423;BME280;3244;42.708;23.288;2023-02-02T13:18:05;94847.25;;;11.05;40.08
6423;BME280;3244;42.708;23.288;2023-02-02T13:20:36;94843.84;;;11.26;39.98
6423;BME280;3244;42.708;23.288;2023-02-02T13:23:08;94842.34;;;11.42;39.57
6423;BME280;3244;42.708;23.288;2023-02-02T13:25:41;94836.41;;;11.21;39.88
6423;BME280;3244;42.708;23.288;2023-02-02T13:28:16;94842.44;;;10.97;40.28
6423;BME280;3244;42.708;23.288;2023-02-02T13:30:47;94842.88;;;10.86;40.90
6423;BME280;3244;42.708;23.288;2023-02-02T13:33:20;94833.28;;;10.93;40.18
6423;BME280;3244;42.708;23.288;2023-02-02T13:35:51;94832.16;;;11.00;39.56
6423;BME280;3244;42.708;23.288;2023-02-02T13:38:22;94836.19;;;10.84;39.47
6423;BME280;3244;42.708;23.288;2023-02-02T13:40:50;94846.53;;;10.79;39.61
6423;BME280;3244;42.708;23.288;2023-02-02T13:43:29;94845.09;;;10.72;40.29